createdAt,value
2019-04-20T00:00:14.448Z,10.95
2019-04-20T00:02:48.502Z,11.70
2019-04-20T00:05:15.054Z,12.13
2019-04-20T00:07:44.321Z,11.00
2019-04-20T00:10:18.367Z,15.45
2019-04-20T00:13:00.999Z,13.23
2019-04-20T00:15:15.657Z,11.28
2019-04-20T00:17:48.612Z,9.55
2019-04-20T00:20:20.481Z,12.83
2019-04-20T00:22:50.793Z,13.70
2019-04-20T00:25:24.091Z,12.10
2019-04-20T00:28:15.246Z,9.53
2019-04-20T00:30:48.001Z,10.00
2019-04-20T00:33:07.322Z,11.97
2019-04-20T00:35:29.392Z,9.73
2019-04-20T00:38:01.160Z,10.95
2019-04-20T00:40:30.689Z,11.65
2019-04-20T00:43:01.480Z,13.40
2019-04-20T00:45:33.697Z,13.95
2019-04-20T00:48:08.188Z,14.20
2019-04-20T00:50:48.731Z,11.27
2019-04-20T00:53:13.325Z,14.07
2019-04-20T00:55:36.075Z,11.30
2019-04-20T00:58:14.778Z,9.83
2019-04-20T01:01:00.152Z,16.20
2019-04-20T01:03:24.815Z,12.63
2019-04-20T01:05:59.733Z,13.70
2019-04-20T01:08:14.963Z,13.10
2019-04-20T01:10:50.206Z,12.05
2019-04-20T01:13:22.841Z,10.48
2019-04-20T01:15:55.971Z,12.05
2019-04-20T01:18:19.697Z,11.22
2019-04-20T01:20:49.374Z,14.23
2019-04-20T01:23:21.300Z,13.08
2019-04-20T01:25:55.818Z,11.70
2019-04-20T01:28:38.470Z,11.88
2019-04-20T01:31:09.229Z,11.22
2019-04-20T01:33:36.524Z,13.38
2019-04-20T01:36:16.522Z,11.08
2019-04-20T01:38:46.992Z,14.00
2019-04-20T01:41:03.793Z,14.13
2019-04-20T01:43:37.883Z,13.48
2019-04-20T01:46:13.142Z,12.98
2019-04-20T01:51:32.393Z,12.05
2019-04-20T01:54:17.762Z,11.28
2019-04-20T01:56:44.857Z,9.80
2019-04-20T01:59:19.995Z,9.53
2019-04-20T02:01:39.663Z,11.65
2019-04-20T02:04:17.107Z,10.32
2019-04-20T02:06:48.082Z,12.37
2019-04-20T02:09:18.667Z,11.78
2019-04-20T02:11:47.273Z,12.33
2019-04-20T02:14:25.613Z,12.53
2019-04-20T02:16:50.603Z,12.30
2019-04-20T02:19:33.384Z,14.87
2019-04-20T02:22:04.094Z,12.45
2019-04-20T02:24:19.612Z,12.05
2019-04-20T02:26:50.246Z,13.10
2019-04-20T02:29:41.533Z,13.65
2019-04-20T02:34:55.624Z,12.30
2019-04-20T02:37:41.801Z,10.90
2019-04-20T02:40:02.884Z,9.33
2019-04-20T02:42:34.232Z,12.47
2019-04-20T02:45:08.985Z,10.45
2019-04-20T02:47:42.696Z,11.28
2019-04-20T02:52:44.128Z,11.73
2019-04-20T02:55:10.360Z,11.20
2019-04-20T02:57:47.724Z,11.60
2019-04-20T03:00:19.413Z,12.70
2019-04-20T03:02:30.043Z,11.60
2019-04-20T03:04:48.030Z,12.80
2019-04-20T03:07:27.657Z,12.23
2019-04-20T03:10:05.515Z,14.03
2019-04-20T03:12:57.034Z,13.60
2019-04-20T03:15:09.421Z,15.18
2019-04-20T03:17:49.840Z,13.05
2019-04-20T03:20:10.570Z,13.85
2019-04-20T03:25:24.179Z,13.43
2019-04-20T03:27:46.190Z,12.63
2019-04-20T03:31:11.768Z,13.55
2019-04-20T03:33:12.695Z,13.58
2019-04-20T03:35:30.908Z,12.73
2019-04-20T03:37:58.796Z,11.18
2019-04-20T03:40:26.710Z,12.23
2019-04-20T03:42:40.038Z,13.32
2019-04-20T03:45:14.135Z,14.13
2019-04-20T03:47:52.829Z,13.88
2019-04-20T03:50:37.846Z,17.23
2019-04-20T03:53:08.705Z,14.07
2019-04-20T03:55:35.589Z,12.55
2019-04-20T03:58:14.062Z,10.50
2019-04-20T04:00:42.982Z,13.38
2019-04-20T04:03:45.900Z,12.47
2019-04-20T04:05:44.333Z,14.53
2019-04-20T04:08:12.297Z,12.30
2019-04-20T04:10:50.518Z,11.35
2019-04-20T04:13:07.262Z,12.07
2019-04-20T04:15:47.854Z,14.80
2019-04-20T04:18:19.125Z,12.55
2019-04-20T04:20:49.997Z,12.23
2019-04-20T04:23:32.299Z,12.00
2019-04-20T04:26:05.824Z,12.67
2019-04-20T04:28:31.196Z,10.95
2019-04-20T04:31:09.512Z,12.05
2019-04-20T04:33:55.557Z,14.75
2019-04-20T04:36:07.135Z,12.93
2019-04-20T04:38:42.449Z,10.35
2019-04-20T04:41:16.972Z,9.78
2019-04-20T04:43:39.969Z,9.45
2019-04-20T04:45:51.796Z,11.83
2019-04-20T04:48:28.091Z,12.00
2019-04-20T04:50:59.051Z,12.28
2019-04-20T04:53:38.843Z,10.23
2019-04-20T04:56:01.309Z,9.08
2019-04-20T04:58:25.684Z,12.13
2019-04-20T05:01:03.916Z,12.07
2019-04-20T05:03:46.374Z,14.75
2019-04-20T05:06:19.805Z,10.28
2019-04-20T05:08:36.753Z,10.23
2019-04-20T05:11:02.682Z,10.00
2019-04-20T05:13:37.089Z,12.93
2019-04-20T05:16:19.283Z,15.53
2019-04-20T05:18:57.672Z,11.83
2019-04-20T05:21:25.622Z,15.53
2019-04-20T05:24:00.658Z,15.83
2019-04-20T05:26:36.129Z,15.05
2019-04-20T05:28:58.967Z,15.63
2019-04-20T05:31:28.198Z,15.65
2019-04-20T05:34:15.977Z,15.63
2019-04-20T05:36:41.662Z,21.50
2019-04-20T05:39:21.304Z,19.47
2019-04-20T05:41:44.084Z,15.48
2019-04-20T05:44:14.270Z,20.73
2019-04-20T05:46:45.902Z,18.65
2019-04-20T05:49:21.990Z,14.73
2019-04-20T05:51:49.828Z,20.40
2019-04-20T05:54:26.947Z,20.20
2019-04-20T05:56:57.967Z,18.63
2019-04-20T05:59:19.227Z,13.98
2019-04-20T06:04:39.937Z,11.08
2019-04-20T06:06:59.727Z,13.43
2019-04-20T06:09:34.165Z,10.53
2019-04-20T06:12:18.002Z,12.75
2019-04-20T06:14:25.834Z,11.73
2019-04-20T06:17:10.805Z,11.15
2019-04-20T06:19:54.740Z,12.60
2019-04-20T06:22:21.227Z,13.68
2019-04-20T06:24:53.045Z,12.03
2019-04-20T06:27:17.945Z,11.85
2019-04-20T06:29:49.839Z,12.93
2019-04-20T06:32:31.238Z,12.55
2019-04-20T06:34:47.860Z,10.43
2019-04-20T06:37:21.337Z,11.47
2019-04-20T06:39:54.690Z,12.35
2019-04-20T06:42:20.250Z,10.32
2019-04-20T06:44:48.147Z,12.58
2019-04-20T06:47:24.880Z,12.82
2019-04-20T06:49:51.017Z,11.73
2019-04-20T06:52:39.752Z,10.13
2019-04-20T06:54:57.974Z,12.55
2019-04-20T06:57:37.195Z,10.90
2019-04-20T07:00:07.614Z,14.15
2019-04-20T07:02:36.053Z,10.82
2019-04-20T07:05:06.975Z,12.93
2019-04-20T07:07:35.809Z,14.33
2019-04-20T07:10:13.300Z,12.93
2019-04-20T07:12:32.736Z,11.25
2019-04-20T07:14:55.284Z,12.40
2019-04-20T07:17:45.530Z,12.07
2019-04-20T07:20:10.548Z,12.45
2019-04-20T07:22:46.522Z,11.90
2019-04-20T07:25:23.134Z,12.88
2019-04-20T07:27:49.000Z,12.30
2019-04-20T07:30:16.448Z,15.83
2019-04-20T07:35:23.243Z,12.53
2019-04-20T07:43:00.314Z,15.25
2019-04-20T07:45:30.772Z,11.90
2019-04-20T07:48:02.785Z,10.28
2019-04-20T07:50:21.841Z,16.07
2019-04-20T07:52:51.191Z,14.95
2019-04-20T07:55:37.062Z,14.68
2019-04-20T07:57:53.786Z,18.50
2019-04-20T08:00:41.519Z,13.00
2019-04-20T08:03:13.000Z,14.68
2019-04-20T08:05:30.489Z,16.25
2019-04-20T08:08:12.700Z,13.85
2019-04-20T08:10:47.151Z,13.22
2019-04-20T08:13:27.533Z,14.67
2019-04-20T08:18:29.284Z,18.12
2019-04-20T08:20:59.612Z,12.75
2019-04-20T08:23:44.022Z,16.52
2019-04-20T08:25:47.505Z,14.68
2019-04-20T08:28:17.819Z,15.43
2019-04-20T08:30:59.429Z,14.98
2019-04-20T08:33:37.988Z,17.73
2019-04-20T08:36:10.757Z,15.88
2019-04-20T08:41:08.262Z,16.10
2019-04-20T08:46:15.032Z,14.45
2019-04-20T08:48:44.333Z,14.45
2019-04-20T08:51:16.343Z,14.15
2019-04-20T08:53:44.981Z,14.77
2019-04-20T08:56:09.985Z,15.20
2019-04-20T08:58:27.213Z,16.00
2019-04-20T09:01:00.211Z,11.48
2019-04-20T09:03:32.631Z,14.13
2019-04-20T09:06:09.832Z,16.05
2019-04-20T09:08:46.567Z,13.25
2019-04-20T09:11:19.655Z,16.00
2019-04-20T09:13:43.097Z,15.37
2019-04-20T09:16:11.013Z,15.03
2019-04-20T09:18:50.231Z,16.93
2019-04-20T09:21:25.736Z,15.00
2019-04-20T09:24:11.788Z,14.75
2019-04-20T09:26:39.952Z,15.88
2019-04-20T09:29:07.922Z,12.25
2019-04-20T09:31:39.304Z,14.70
2019-04-20T09:34:14.488Z,13.90
2019-04-20T09:36:42.351Z,12.47
2019-04-20T09:39:11.420Z,16.57
2019-04-20T09:41:56.523Z,11.65
2019-04-20T09:44:06.749Z,12.60
2019-04-20T09:46:40.004Z,14.40
2019-04-20T09:49:18.768Z,15.77
2019-04-20T09:51:55.086Z,18.15
2019-04-20T09:54:34.055Z,16.30
2019-04-20T09:57:03.239Z,18.67
2019-04-20T09:59:33.556Z,17.65
2019-04-20T10:01:50.019Z,17.48
2019-04-20T10:04:15.393Z,15.45
2019-04-20T10:06:45.635Z,15.88
2019-04-20T10:09:15.764Z,17.40
2019-04-20T10:11:46.989Z,17.62
2019-04-20T10:14:20.054Z,19.65
2019-04-20T10:16:53.812Z,15.63
2019-04-20T10:22:13.207Z,18.98
2019-04-20T10:24:48.089Z,19.30
2019-04-20T10:27:26.494Z,19.63
2019-04-20T10:32:50.504Z,17.30
2019-04-20T10:35:32.057Z,19.13
2019-04-20T10:38:05.441Z,15.35
2019-04-20T10:40:46.144Z,16.60
2019-04-20T10:43:08.049Z,19.48
2019-04-20T10:45:39.102Z,16.45
2019-04-20T10:48:10.921Z,18.12
2019-04-20T10:50:40.932Z,13.27
2019-04-20T10:53:10.357Z,13.30
2019-04-20T10:55:39.821Z,17.80
2019-04-20T10:58:09.422Z,17.32
2019-04-20T11:00:41.811Z,15.90
2019-04-20T11:03:19.759Z,14.07
2019-04-20T11:05:50.838Z,12.80
2019-04-20T11:08:20.474Z,15.93
2019-04-20T11:11:01.472Z,15.65
2019-04-20T11:13:21.720Z,14.25
2019-04-20T11:15:52.666Z,14.80
2019-04-20T11:18:22.174Z,15.30
2019-04-20T11:20:53.201Z,12.82
2019-04-20T11:23:24.481Z,15.58
2019-04-20T11:25:54.071Z,15.95
2019-04-20T11:28:26.189Z,18.57
2019-04-20T11:30:56.304Z,18.75
2019-04-20T11:33:40.147Z,13.83
2019-04-20T11:36:23.230Z,16.23
2019-04-20T11:39:04.945Z,11.80
2019-04-20T11:41:36.971Z,13.85
2019-04-20T11:46:58.640Z,12.40
2019-04-20T11:49:31.358Z,13.13
2019-04-20T11:55:00.623Z,11.08
2019-04-20T11:57:31.747Z,10.68
2019-04-20T12:02:54.652Z,11.00
2019-04-20T12:05:47.862Z,12.65
2019-04-20T12:08:14.786Z,10.60
2019-04-20T12:24:22.644Z,10.13
2019-04-20T12:26:56.913Z,8.93
2019-04-20T12:29:27.862Z,10.10
2019-04-20T12:38:53.185Z,6.35
2019-04-20T12:45:04.148Z,9.15
2019-04-20T12:47:41.851Z,12.33
2019-04-20T13:00:39.407Z,14.28
2019-04-20T13:03:09.518Z,8.40
2019-04-20T13:05:40.214Z,11.05
2019-04-20T13:08:13.756Z,9.18
2019-04-20T13:10:44.492Z,8.10
2019-04-20T13:13:16.549Z,10.57
2019-04-20T13:15:50.205Z,13.03
2019-04-20T13:18:21.295Z,10.23
2019-04-20T13:20:53.548Z,9.40
2019-04-20T13:23:22.547Z,8.87
2019-04-20T13:25:52.964Z,7.47
2019-04-20T13:28:23.172Z,10.63
2019-04-20T13:30:53.606Z,7.47
2019-04-20T13:33:23.147Z,10.10
2019-04-20T13:35:52.531Z,10.48
2019-04-20T13:38:23.438Z,9.70
2019-04-20T13:40:53.659Z,10.15
2019-04-20T13:43:23.821Z,11.68
2019-04-20T13:45:53.219Z,9.25
2019-04-20T13:48:22.579Z,7.67
2019-04-20T13:50:51.895Z,7.40
2019-04-20T13:53:21.260Z,7.95
2019-04-20T13:55:50.684Z,9.23
2019-04-20T13:58:23.207Z,6.72
2019-04-20T14:00:55.559Z,7.72
2019-04-20T14:03:27.007Z,7.78
2019-04-20T14:05:56.491Z,8.60
2019-04-20T14:08:27.656Z,9.73
2019-04-20T14:10:57.606Z,10.05
2019-04-20T14:13:35.225Z,9.38
2019-04-20T14:15:58.875Z,9.20
2019-04-20T14:18:29.268Z,9.55
2019-04-20T14:20:58.476Z,9.33
2019-04-20T14:23:28.202Z,9.90
2019-04-20T14:25:58.714Z,10.95
2019-04-20T14:28:29.094Z,9.55
2019-04-20T14:30:58.380Z,7.27
2019-04-20T14:33:28.543Z,8.73
2019-04-20T14:35:59.034Z,11.73
2019-04-20T14:38:28.562Z,9.95
2019-04-20T14:40:58.187Z,7.80
2019-04-20T14:43:30.164Z,7.50
2019-04-20T14:45:58.761Z,7.45
2019-04-20T14:48:28.882Z,9.30
2019-04-20T14:50:59.360Z,9.23
2019-04-20T14:53:29.488Z,8.98
2019-04-20T14:55:59.724Z,7.60
2019-04-20T14:58:31.406Z,9.10
2019-04-20T15:01:02.649Z,10.23
2019-04-20T15:03:36.879Z,8.88
2019-04-20T15:06:05.497Z,8.48
2019-04-20T15:08:34.791Z,7.10
2019-04-20T15:11:05.177Z,7.45
2019-04-20T15:13:34.946Z,8.93
2019-04-20T15:16:04.679Z,8.35
2019-04-20T15:18:35.710Z,10.82
2019-04-20T15:21:06.686Z,8.50
2019-04-20T15:23:37.302Z,9.50
2019-04-20T15:26:06.721Z,7.53
2019-04-20T15:28:36.591Z,7.47
2019-04-20T15:31:06.083Z,10.00
2019-04-20T15:33:35.325Z,8.38
2019-04-20T15:36:04.619Z,8.60
2019-04-20T15:38:35.372Z,8.93
2019-04-20T15:41:05.923Z,9.55
2019-04-20T15:43:35.794Z,9.65
2019-04-20T15:46:05.474Z,9.83
2019-04-20T15:48:34.759Z,9.00
2019-04-20T15:51:03.894Z,8.55
2019-04-20T15:53:33.532Z,9.28
2019-04-20T15:56:07.669Z,10.13
2019-04-20T15:58:34.556Z,12.10
2019-04-20T16:01:05.458Z,22.55
2019-04-20T16:25:59.611Z,13.10
2019-04-20T16:31:24.558Z,10.85
2019-04-20T16:34:03.355Z,13.65
2019-04-20T16:49:26.440Z,8.28
2019-04-20T16:58:29.315Z,8.75
2019-04-20T17:01:19.398Z,14.05
2019-04-20T17:03:59.818Z,11.10
2019-04-20T17:12:48.130Z,16.32
2019-04-20T17:15:21.320Z,17.07
2019-04-20T17:17:59.616Z,11.83
2019-04-20T17:24:04.664Z,12.43
2019-04-20T17:26:37.153Z,13.53
2019-04-20T17:29:23.935Z,10.23
2019-04-20T17:31:45.155Z,11.48
2019-04-20T17:34:36.484Z,14.33
2019-04-20T17:36:53.013Z,14.07
2019-04-20T17:39:31.126Z,11.08
2019-04-20T17:42:07.480Z,10.50
2019-04-20T17:51:17.905Z,13.13
2019-04-20T17:53:51.190Z,10.18
2019-04-20T17:59:08.132Z,16.75
2019-04-20T18:01:51.734Z,14.80
2019-04-20T18:04:44.537Z,12.47
2019-04-20T18:06:58.006Z,13.25
2019-04-20T18:09:38.662Z,11.93
2019-04-20T18:11:52.083Z,14.28
2019-04-20T18:14:38.019Z,13.15
2019-04-20T18:17:12.670Z,8.48
2019-04-20T18:29:34.016Z,10.53
2019-04-20T18:31:44.087Z,14.40
2019-04-20T18:34:18.905Z,12.85
2019-04-20T18:36:49.144Z,14.68
2019-04-20T18:39:23.484Z,13.80
2019-04-20T18:41:53.846Z,10.27
2019-04-20T18:44:28.002Z,12.18
2019-04-20T18:47:23.385Z,10.28
2019-04-20T18:49:39.446Z,13.50
2019-04-20T18:51:58.115Z,12.60
2019-04-20T18:54:32.414Z,11.63
2019-04-20T18:56:59.813Z,9.63
2019-04-20T18:59:40.060Z,13.35
2019-04-20T19:02:06.763Z,12.73
2019-04-20T19:04:35.505Z,13.22
2019-04-20T19:07:05.693Z,18.17
2019-04-20T19:09:38.204Z,15.30
2019-04-20T19:12:10.933Z,13.53
2019-04-20T19:14:45.825Z,14.03
2019-04-20T19:17:26.066Z,14.45
2019-04-20T19:19:52.934Z,15.65
2019-04-20T19:22:19.673Z,14.40
2019-04-20T19:24:49.796Z,12.95
2019-04-20T19:27:30.231Z,13.00
2019-04-20T19:30:07.333Z,14.63
2019-04-20T19:35:34.987Z,15.13
2019-04-20T19:38:06.610Z,12.58
2019-04-20T19:44:20.487Z,6.90
2019-04-20T19:47:10.673Z,13.60
2019-04-20T19:49:40.757Z,13.38
2019-04-20T19:52:30.945Z,13.40
2019-04-20T19:54:50.385Z,11.15
2019-04-20T19:57:25.471Z,13.68
2019-04-20T19:59:41.307Z,12.40
2019-04-20T20:02:09.572Z,13.17
2019-04-20T20:07:35.866Z,15.93
2019-04-20T20:10:03.503Z,16.12
2019-04-20T20:12:39.852Z,13.50
2019-04-20T20:15:14.812Z,11.12
2019-04-20T20:18:01.930Z,11.88
2019-04-20T20:20:35.832Z,14.40
2019-04-20T20:22:49.757Z,15.68
2019-04-20T20:25:19.030Z,12.33
2019-04-20T20:27:54.323Z,12.55
2019-04-20T20:30:27.862Z,13.13
2019-04-20T20:33:13.994Z,14.80
2019-04-20T20:35:42.186Z,12.13
2019-04-20T20:41:05.664Z,17.62
2019-04-20T20:43:45.725Z,16.00
2019-04-20T20:46:18.582Z,15.55
2019-04-20T20:55:48.734Z,16.25
2019-04-20T20:58:40.171Z,17.45
2019-04-20T21:01:07.723Z,15.38
2019-04-20T21:09:55.271Z,9.88
2019-04-20T21:12:36.428Z,17.95
2019-04-20T21:15:16.391Z,14.75
2019-04-20T21:18:12.197Z,17.67
2019-04-20T21:38:24.958Z,10.90
2019-04-20T21:49:54.133Z,12.63
2019-04-20T22:51:43.609Z,10.68
2019-04-20T22:55:01.435Z,8.90
2019-04-20T23:06:35.415Z,11.57
